Time,TemperatureF,DewpointF,PressureIn,WindDirection,WindDirectionDegrees,WindSpeedMPH,WindSpeedGustMPH,Humidity,HourlyPrecipIn,Conditions,Clouds,dailyrainin,SoftwareType,DateUTC
2013-03-15 00:00:00,52.2,46.2,30.38,South,180,6.3,6.3,80,0.00,,---,0.00,VWS V14.01,2013-03-15 07:00:00,
2013-03-15 00:05:00,52.2,46.5,30.39,South,180,3.8,3.8,81,0.00,,---,0.00,VWS V14.01,2013-03-15 07:05:00,
2013-03-15 00:10:00,52.2,46.2,30.39,South,180,3.8,3.8,80,0.00,,---,0.00,VWS V14.01,2013-03-15 07:10:00,
2013-03-15 00:15:00,52.0,46.0,30.39,South,180,4.7,4.7,80,0.00,,---,0.00,VWS V14.01,2013-03-15 07:15:00,
2013-03-15 00:20:00,52.0,46.0,30.39,South,180,4.3,4.3,80,0.00,,---,0.00,VWS V14.01,2013-03-15 07:20:00,
2013-03-15 00:25:00,52.0,46.4,30.39,South,180,6.3,6.3,81,0.00,,---,0.00,VWS V14.01,2013-03-15 07:25:00,
2013-03-15 00:30:00,51.8,46.2,30.39,South,180,6.3,6.3,81,0.00,,---,0.00,VWS V14.01,2013-03-15 07:30:00,
2013-03-15 00:35:00,51.8,46.5,30.39,South,180,7.6,7.6,82,0.00,,---,0.00,VWS V14.01,2013-03-15 07:35:00,
2013-03-15 00:40:00,51.8,46.5,30.39,South,180,7.8,7.8,82,0.00,,---,0.00,VWS V14.01,2013-03-15 07:40:00,
2013-03-15 00:45:00,51.5,46.2,30.39,South,180,6.3,6.3,82,0.00,,---,0.00,VWS V14.01,2013-03-15 07:45:00,
2013-03-15 00:50:00,51.7,46.4,30.39,South,180,1.8,4.3,82,0.00,,---,0.00,VWS V14.01,2013-03-15 07:50:00,
2013-03-15 00:55:00,51.8,46.5,30.39,South,180,5.6,5.6,82,0.00,,---,0.00,VWS V14.01,2013-03-15 07:55:00,
2013-03-15 01:00:00,51.8,46.5,30.39,South,180,2.9,2.9,82,0.00,,---,0.00,VWS V14.01,2013-03-15 08:00:00,
2013-03-15 01:05:00,51.8,46.2,30.40,South,180,4.7,4.7,81,0.00,,---,0.00,VWS V14.01,2013-03-15 08:05:00,
2013-03-15 01:10:00,51.8,46.5,30.40,South,180,3.4,3.4,82,0.00,,---,0.00,VWS V14.01,2013-03-15 08:10:00,
2013-03-15 01:15:00,51.8,46.5,30.40,WSW,248,10.5,10.5,82,0.00,,---,0.00,VWS V14.01,2013-03-15 08:15:00,
2013-03-15 01:20:00,51.8,46.5,30.40,South,180,5.6,5.6,82,0.00,,---,0.00,VWS V14.01,2013-03-15 08:20:00,
2013-03-15 01:25:00,51.8,46.5,30.40,South,180,3.8,3.8,82,0.00,,---,0.00,VWS V14.01,2013-03-15 08:25:00,
2013-03-15 01:30:00,51.7,46.4,30.40,South,180,5.4,5.4,82,0.00,,---,0.00,VWS V14.01,2013-03-15 08:30:00,
2013-03-15 01:35:00,51.7,46.4,30.40,South,180,5.8,5.8,82,0.00,,---,0.00,VWS V14.01,2013-03-15 08:35:00,
2013-03-15 01:40:00,51.5,46.2,30.40,South,180,5.1,5.1,82,0.00,,---,0.00,VWS V14.01,2013-03-15 08:40:00,
2013-03-15 01:45:00,51.5,46.2,30.40,South,180,3.8,3.8,82,0.00,,---,0.00,VWS V14.01,2013-03-15 08:45:00,
2013-03-15 01:50:00,51.3,46.3,30.40,South,180,0.9,0.9,83,0.00,,---,0.00,VWS V14.01,2013-03-15 08:50:00,
2013-03-15 01:55:00,51.3,46.3,30.40,South,180,0.4,0.4,83,0.00,,---,0.00,VWS V14.01,2013-03-15 08:55:00,
2013-03-15 02:00:00,51.1,46.1,30.40,South,180,0.4,0.4,83,0.00,,---,0.00,VWS V14.01,2013-03-15 09:00:00,
2013-03-15 02:05:00,51.1,46.1,30.40,South,180,0.0,0.0,83,0.00,,---,0.00,VWS V14.01,2013-03-15 09:05:00,
2013-03-15 02:10:00,51.1,46.1,30.41,South,180,1.6,1.6,83,0.00,,---,0.00,VWS V14.01,2013-03-15 09:10:00,
2013-03-15 02:15:00,50.9,45.9,30.40,South,180,0.4,0.4,83,0.00,,---,0.00,VWS V14.01,2013-03-15 09:15:00,
2013-03-15 02:20:00,50.9,46.2,30.41,South,180,0.7,0.7,84,0.00,,---,0.00,VWS V14.01,2013-03-15 09:20:00,
2013-03-15 02:25:00,50.8,46.2,30.41,South,180,0.0,0.0,84,0.00,,---,0.00,VWS V14.01,2013-03-15 09:25:00,
2013-03-15 02:30:00,50.8,46.2,30.41,South,180,0.7,1.6,84,0.00,,---,0.00,VWS V14.01,2013-03-15 09:30:00,
2013-03-15 02:35:00,50.6,46.3,30.41,South,180,0.9,0.9,85,0.00,,---,0.00,VWS V14.01,2013-03-15 09:35:00,
2013-03-15 02:40:00,50.4,46.4,30.41,South,180,2.0,2.0,86,0.00,,---,0.00,VWS V14.01,2013-03-15 09:40:00,
2013-03-15 02:45:00,50.4,46.1,30.42,South,180,0.0,0.0,85,0.00,,---,0.00,VWS V14.01,2013-03-15 09:45:00,
2013-03-15 02:50:00,50.4,46.1,30.41,South,180,0.2,0.2,85,0.00,,---,0.00,VWS V14.01,2013-03-15 09:50:00,
2013-03-15 02:55:00,50.4,46.4,30.41,South,180,0.9,0.9,86,0.00,,---,0.00,VWS V14.01,2013-03-15 09:55:00,
2013-03-15 03:00:00,50.4,46.4,30.41,South,180,6.3,6.3,86,0.00,,---,0.00,VWS V14.01,2013-03-15 10:00:00,
2013-03-15 03:05:00,50.8,46.8,30.41,South,180,5.1,5.1,86,0.00,,---,0.00,VWS V14.01,2013-03-15 10:05:00,
2013-03-15 03:10:00,50.8,46.8,30.41,South,180,6.0,6.0,86,0.00,,---,0.00,VWS V14.01,2013-03-15 10:10:00,
2013-03-15 03:15:00,50.8,46.8,30.41,South,180,1.6,1.6,86,0.00,,---,0.00,VWS V14.01,2013-03-15 10:15:00,
2013-03-15 03:20:00,50.8,46.8,30.41,South,180,0.2,0.2,86,0.00,,---,0.00,VWS V14.01,2013-03-15 10:20:00,
2013-03-15 03:25:00,50.8,46.5,30.41,South,180,1.6,1.6,85,0.00,,---,0.00,VWS V14.01,2013-03-15 10:25:00,
2013-03-15 03:30:00,51.1,46.8,30.41,South,180,1.6,1.6,85,0.00,,---,0.00,VWS V14.01,2013-03-15 10:30:00,
2013-03-15 03:35:00,51.1,46.8,30.41,South,180,2.5,2.5,85,0.00,,---,0.00,VWS V14.01,2013-03-15 10:35:00,
2013-03-15 03:40:00,51.1,46.4,30.41,South,180,1.1,1.1,84,0.00,,---,0.00,VWS V14.01,2013-03-15 10:40:00,
2013-03-15 03:45:00,51.1,46.4,30.41,South,180,2.9,2.9,84,0.00,,---,0.00,VWS V14.01,2013-03-15 10:45:00,
2013-03-15 03:50:00,51.1,46.4,30.40,South,180,4.7,4.7,84,0.00,,---,0.00,VWS V14.01,2013-03-15 10:50:00,
2013-03-15 03:55:00,50.9,46.2,30.40,South,180,0.4,0.4,84,0.00,,---,0.00,VWS V14.01,2013-03-15 10:55:00,
2013-03-15 04:00:00,50.8,46.2,30.40,South,180,0.7,0.7,84,0.00,,---,0.00,VWS V14.01,2013-03-15 11:00:00,
2013-03-15 04:05:00,50.6,46.3,30.40,South,180,0.2,0.2,85,0.00,,---,0.00,VWS V14.01,2013-03-15 11:05:00,
2013-03-15 04:10:00,50.4,46.1,30.40,South,180,1.1,1.1,85,0.00,,---,0.00,VWS V14.01,2013-03-15 11:10:00,
2013-03-15 04:15:00,50.2,46.2,30.40,South,180,1.8,1.8,86,0.00,,---,0.00,VWS V14.01,2013-03-15 11:15:00,
2013-03-15 04:20:00,50.2,46.2,30.40,South,180,0.4,0.4,86,0.00,,---,0.00,VWS V14.01,2013-03-15 11:20:00,
2013-03-15 04:25:00,50.0,46.0,30.40,South,180,1.1,1.1,86,0.00,,---,0.00,VWS V14.01,2013-03-15 11:25:00,
2013-03-15 04:30:00,50.0,46.0,30.40,NNE,22,1.6,2.5,86,0.00,,---,0.00,VWS V14.01,2013-03-15 11:30:00,
2013-03-15 04:35:00,50.0,46.0,30.40,South,180,3.4,3.4,86,0.00,,---,0.00,VWS V14.01,2013-03-15 11:35:00,
2013-03-15 04:40:00,49.9,45.9,30.40,South,180,0.0,0.4,86,0.00,,---,0.00,VWS V14.01,2013-03-15 11:40:00,
2013-03-15 04:45:00,49.7,45.7,30.40,South,180,1.8,1.8,86,0.00,,---,0.00,VWS V14.01,2013-03-15 11:45:00,
2013-03-15 04:50:00,49.7,45.7,30.40,South,180,0.9,0.9,86,0.00,,---,0.00,VWS V14.01,2013-03-15 11:50:00,
2013-03-15 04:55:00,49.5,45.5,30.40,South,180,0.4,0.4,86,0.00,,---,0.00,VWS V14.01,2013-03-15 11:55:00,
2013-03-15 05:00:00,49.5,45.5,30.40,South,180,0.2,0.2,86,0.00,,---,0.00,VWS V14.01,2013-03-15 12:00:00,
2013-03-15 05:05:00,49.5,45.5,30.40,South,180,0.2,0.2,86,0.00,,---,0.00,VWS V14.01,2013-03-15 12:05:00,
2013-03-15 05:10:00,49.5,45.5,30.40,South,180,0.7,0.7,86,0.00,,---,0.00,VWS V14.01,2013-03-15 12:10:00,
2013-03-15 05:15:00,49.5,45.5,30.40,South,180,0.9,0.9,86,0.00,,---,0.00,VWS V14.01,2013-03-15 12:15:00,
2013-03-15 05:20:00,49.5,45.5,30.40,South,180,1.8,1.8,86,0.00,,---,0.00,VWS V14.01,2013-03-15 12:20:00,
2013-03-15 05:25:00,49.7,45.7,30.40,South,180,1.8,1.8,86,0.00,,---,0.00,VWS V14.01,2013-03-15 12:25:00,
2013-03-15 05:30:00,49.9,45.9,30.41,South,180,1.1,1.8,86,0.00,,---,0.00,VWS V14.01,2013-03-15 12:30:00,
2013-03-15 05:35:00,50.0,46.3,30.41,South,180,4.5,4.5,87,0.00,,---,0.00,VWS V14.01,2013-03-15 12:35:00,
2013-03-15 05:40:00,50.0,46.3,30.41,South,180,1.8,1.8,87,0.00,,---,0.00,VWS V14.01,2013-03-15 12:40:00,
2013-03-15 05:45:00,50.0,46.3,30.41,South,180,1.3,1.3,87,0.00,,---,0.00,VWS V14.01,2013-03-15 12:45:00,
2013-03-15 05:50:00,50.2,46.5,30.41,South,180,1.1,1.1,87,0.00,,---,0.00,VWS V14.01,2013-03-15 12:50:00,
2013-03-15 05:55:00,50.2,46.2,30.41,South,180,1.3,1.3,86,0.00,,---,0.00,VWS V14.01,2013-03-15 12:55:00,
2013-03-15 06:00:00,50.4,46.4,30.41,South,180,1.1,1.1,86,0.00,,---,0.00,VWS V14.01,2013-03-15 13:00:00,
2013-03-15 06:05:00,50.0,46.0,30.41,South,180,0.0,0.0,86,0.00,,---,0.00,VWS V14.01,2013-03-15 13:05:00,
2013-03-15 06:10:00,49.7,45.7,30.41,South,180,0.4,0.4,86,0.00,,---,0.00,VWS V14.01,2013-03-15 13:10:00,
2013-03-15 06:15:00,49.3,45.0,30.41,South,180,1.1,1.1,85,0.00,,---,0.00,VWS V14.01,2013-03-15 13:15:00,
2013-03-15 06:20:00,49.0,45.0,30.41,South,180,3.1,3.1,86,0.00,,---,0.00,VWS V14.01,2013-03-15 13:20:00,
2013-03-15 06:25:00,49.3,45.6,30.41,South,180,4.0,4.0,87,0.00,,---,0.00,VWS V14.01,2013-03-15 13:25:00,
2013-03-15 06:30:00,49.3,45.6,30.41,South,180,0.4,0.4,87,0.00,,---,0.00,VWS V14.01,2013-03-15 13:30:00,
2013-03-15 06:35:00,49.3,45.6,30.42,South,180,1.6,1.6,87,0.00,,---,0.00,VWS V14.01,2013-03-15 13:35:00,
2013-03-15 06:40:00,49.3,45.3,30.42,South,180,1.1,1.1,86,0.00,,---,0.00,VWS V14.01,2013-03-15 13:40:00,
2013-03-15 06:45:00,49.0,45.3,30.42,South,180,1.8,1.8,87,0.00,,---,0.00,VWS V14.01,2013-03-15 13:45:00,
2013-03-15 06:50:00,48.6,45.2,30.42,South,180,2.7,2.7,88,0.00,,---,0.00,VWS V14.01,2013-03-15 13:50:00,
2013-03-15 06:55:00,48.8,45.1,30.42,South,180,0.0,0.0,87,0.00,,---,0.00,VWS V14.01,2013-03-15 13:55:00,
2013-03-15 07:00:00,48.6,44.9,30.42,South,180,0.0,0.0,87,0.00,,---,0.00,VWS V14.01,2013-03-15 14:00:00,
2013-03-15 07:05:00,48.2,44.5,30.42,South,180,1.3,1.3,87,0.00,,---,0.00,VWS V14.01,2013-03-15 14:05:00,
2013-03-15 07:10:00,47.9,44.2,30.42,South,180,1.1,1.1,87,0.00,,---,0.00,VWS V14.01,2013-03-15 14:10:00,
2013-03-15 07:15:00,47.5,44.1,30.42,South,180,0.2,0.2,88,0.00,,---,0.00,VWS V14.01,2013-03-15 14:15:00,
2013-03-15 07:20:00,47.2,43.8,30.42,South,180,0.4,0.4,88,0.00,,---,0.00,VWS V14.01,2013-03-15 14:20:00,
2013-03-15 07:25:00,47.2,43.8,30.42,South,180,0.0,0.0,88,0.00,,---,0.00,VWS V14.01,2013-03-15 14:25:00,
2013-03-15 07:30:00,46.8,43.4,30.42,South,180,0.0,0.0,88,0.00,,---,0.00,VWS V14.01,2013-03-15 14:30:00,
2013-03-15 07:35:00,46.6,43.2,30.42,South,180,0.9,0.9,88,0.00,,---,0.00,VWS V14.01,2013-03-15 14:35:00,
2013-03-15 07:40:00,46.4,43.0,30.42,South,180,0.0,0.7,88,0.00,,---,0.00,VWS V14.01,2013-03-15 14:40:00,
2013-03-15 07:45:00,46.4,43.3,30.42,South,180,1.6,1.6,89,0.00,,---,0.00,VWS V14.01,2013-03-15 14:45:00,
2013-03-15 07:50:00,46.4,43.3,30.42,South,180,1.1,1.1,89,0.00,,---,0.00,VWS V14.01,2013-03-15 14:50:00,
2013-03-15 07:55:00,46.4,43.3,30.42,South,180,1.1,1.1,89,0.00,,---,0.00,VWS V14.01,2013-03-15 14:55:00,
2013-03-15 08:00:00,46.4,43.3,30.43,South,180,2.7,2.7,89,0.00,,---,0.00,VWS V14.01,2013-03-15 15:00:00,
2013-03-15 08:05:00,46.4,43.6,30.42,South,180,0.2,0.2,90,0.00,,---,0.00,VWS V14.01,2013-03-15 15:05:00,
2013-03-15 08:10:00,46.6,43.8,30.43,NNE,22,2.2,2.2,90,0.00,,---,0.00,VWS V14.01,2013-03-15 15:10:00,
2013-03-15 08:15:00,46.8,44.0,30.43,NNE,22,1.3,1.3,90,0.00,,---,0.00,VWS V14.01,2013-03-15 15:15:00,
2013-03-15 08:20:00,47.0,44.2,30.43,North,0,0.2,0.2,90,0.00,,---,0.00,VWS V14.01,2013-03-15 15:20:00,
2013-03-15 08:25:00,47.0,44.2,30.43,South,180,1.8,1.8,90,0.00,,---,0.00,VWS V14.01,2013-03-15 15:25:00,
2013-03-15 08:30:00,47.2,44.4,30.43,South,180,0.7,0.7,90,0.00,,---,0.00,VWS V14.01,2013-03-15 15:30:00,
2013-03-15 08:35:00,47.5,44.7,30.43,South,180,0.0,0.0,90,0.00,,---,0.00,VWS V14.01,2013-03-15 15:35:00,
2013-03-15 08:40:00,47.9,45.4,30.43,South,180,1.1,1.1,91,0.00,,---,0.00,VWS V14.01,2013-03-15 15:40:00,
2013-03-15 08:45:00,48.6,46.1,30.43,South,180,0.0,0.0,91,0.00,,---,0.00,VWS V14.01,2013-03-15 15:45:00,
2013-03-15 08:50:00,49.0,46.2,30.43,South,180,0.0,0.0,90,0.00,,---,0.00,VWS V14.01,2013-03-15 15:50:00,
2013-03-15 08:55:00,49.3,46.5,30.44,South,180,1.8,1.8,90,0.00,,---,0.00,VWS V14.01,2013-03-15 15:55:00,
2013-03-15 09:00:00,49.7,46.9,30.44,South,180,0.4,0.4,90,0.00,,---,0.00,VWS V14.01,2013-03-15 16:00:00,
2013-03-15 09:04:00,50.0,46.9,30.44,South,180,2.2,2.2,89,0.00,,---,0.00,VWS V14.01,2013-03-15 16:04:00,
2013-03-15 09:09:00,50.6,47.5,30.44,South,180,3.1,3.1,89,0.00,,---,0.00,VWS V14.01,2013-03-15 16:09:00,
2013-03-15 09:14:00,50.9,47.8,30.44,South,180,3.4,3.4,89,0.00,,---,0.00,VWS V14.01,2013-03-15 16:14:00,
2013-03-15 09:19:00,51.1,47.4,30.44,South,180,4.9,4.9,87,0.00,,---,0.00,VWS V14.01,2013-03-15 16:19:00,
2013-03-15 09:24:00,51.3,47.6,30.43,South,180,1.1,1.1,87,0.00,,---,0.00,VWS V14.01,2013-03-15 16:24:00,
2013-03-15 09:29:00,51.5,47.5,30.44,South,180,1.6,1.6,86,0.00,,---,0.00,VWS V14.01,2013-03-15 16:29:00,
2013-03-15 09:34:00,51.7,47.7,30.44,South,180,2.5,2.5,86,0.00,,---,0.00,VWS V14.01,2013-03-15 16:34:00,
2013-03-15 09:39:00,52.0,48.0,30.44,South,180,0.4,0.4,86,0.00,,---,0.00,VWS V14.01,2013-03-15 16:39:00,
2013-03-15 09:44:00,52.2,48.2,30.44,South,180,1.1,1.8,86,0.00,,---,0.00,VWS V14.01,2013-03-15 16:44:00,
2013-03-15 09:49:00,52.4,48.0,30.44,South,180,0.4,1.1,85,0.00,,---,0.00,VWS V14.01,2013-03-15 16:49:00,
2013-03-15 09:54:00,52.6,47.9,30.44,South,180,1.1,1.3,84,0.00,,---,0.00,VWS V14.01,2013-03-15 16:54:00,
2013-03-15 09:59:00,52.9,47.9,30.44,South,180,0.9,1.8,83,0.00,,---,0.00,VWS V14.01,2013-03-15 16:59:00,
2013-03-15 10:04:00,53.6,48.2,30.45,South,180,2.0,2.0,82,0.00,,---,0.00,VWS V14.01,2013-03-15 17:04:00,
2013-03-15 10:09:00,53.8,48.4,30.45,South,180,1.1,4.0,82,0.00,,---,0.00,VWS V14.01,2013-03-15 17:09:00,
2013-03-15 10:14:00,54.0,48.6,30.45,South,180,1.8,1.8,82,0.00,,---,0.00,VWS V14.01,2013-03-15 17:14:00,
2013-03-15 10:19:00,54.2,48.8,30.45,South,180,1.6,1.6,82,0.00,,---,0.00,VWS V14.01,2013-03-15 17:19:00,
2013-03-15 10:24:00,54.4,48.0,30.45,South,180,0.9,0.9,79,0.00,,---,0.00,VWS V14.01,2013-03-15 17:24:00,
2013-03-15 10:29:00,54.5,47.5,30.45,South,180,6.3,6.3,77,0.00,,---,0.00,VWS V14.01,2013-03-15 17:29:00,
2013-03-15 10:34:00,54.7,48.3,30.45,South,180,2.2,2.2,79,0.00,,---,0.00,VWS V14.01,2013-03-15 17:34:00,
2013-03-15 10:39:00,55.1,48.4,30.44,South,180,2.0,2.2,78,0.00,,---,0.00,VWS V14.01,2013-03-15 17:39:00,
2013-03-15 10:44:00,55.1,48.4,30.44,South,180,2.9,2.9,78,0.00,,---,0.00,VWS V14.01,2013-03-15 17:44:00,
2013-03-15 10:49:00,55.3,48.6,30.44,South,180,0.0,0.0,78,0.00,,---,0.00,VWS V14.01,2013-03-15 17:49:00,
2013-03-15 10:54:00,55.4,49.0,30.44,South,180,1.1,1.6,79,0.00,,---,0.00,VWS V14.01,2013-03-15 17:54:00,
2013-03-15 10:59:00,55.4,49.0,30.44,South,180,0.0,2.7,79,0.00,,---,0.00,VWS V14.01,2013-03-15 17:59:00,
2013-03-15 11:04:00,55.8,48.7,30.44,South,180,0.7,0.7,77,0.00,,---,0.00,VWS V14.01,2013-03-15 18:04:00,
2013-03-15 11:09:00,56.3,48.8,30.44,South,180,0.9,0.9,76,0.00,,---,0.00,VWS V14.01,2013-03-15 18:09:00,
2013-03-15 11:14:00,57.1,48.9,30.44,South,180,2.5,2.5,74,0.00,,---,0.00,VWS V14.01,2013-03-15 18:14:00,
2013-03-15 11:19:00,57.6,49.0,30.44,South,180,3.4,3.4,73,0.00,,---,0.00,VWS V14.01,2013-03-15 18:19:00,
2013-03-15 11:24:00,58.1,48.8,30.44,South,180,3.4,3.4,71,0.00,,---,0.00,VWS V14.01,2013-03-15 18:24:00,
2013-03-15 11:29:00,58.5,48.8,30.44,South,180,1.3,1.3,70,0.00,,---,0.00,VWS V14.01,2013-03-15 18:29:00,
2013-03-15 11:34:00,58.9,48.0,30.44,South,180,1.8,1.8,67,0.00,,---,0.00,VWS V14.01,2013-03-15 18:34:00,
2013-03-15 11:39:00,58.5,48.0,30.44,NW,315,2.2,2.2,68,0.00,,---,0.00,VWS V14.01,2013-03-15 18:39:00,
2013-03-15 11:44:00,58.1,47.2,30.44,South,180,4.0,4.0,67,0.00,,---,0.00,VWS V14.01,2013-03-15 18:44:00,
2013-03-15 11:49:00,58.0,47.9,30.44,South,180,3.1,3.1,69,0.00,,---,0.00,VWS V14.01,2013-03-15 18:49:00,
2013-03-15 11:54:00,58.3,47.4,30.44,South,180,2.7,2.7,67,0.00,,---,0.00,VWS V14.01,2013-03-15 18:54:00,
2013-03-15 11:59:00,58.9,48.4,30.44,South,180,2.2,2.2,68,0.00,,---,0.00,VWS V14.01,2013-03-15 18:59:00,
2013-03-15 12:04:00,59.2,47.9,30.44,South,180,3.4,3.4,66,0.00,,---,0.00,VWS V14.01,2013-03-15 19:04:00,
2013-03-15 12:09:00,59.4,48.0,30.44,South,180,1.1,1.1,66,0.00,,---,0.00,VWS V14.01,2013-03-15 19:09:00,
2013-03-15 12:14:00,60.1,49.1,30.44,South,180,4.3,4.3,67,0.00,,---,0.00,VWS V14.01,2013-03-15 19:14:00,
2013-03-15 12:19:00,60.5,48.7,30.44,South,180,1.6,1.6,65,0.00,,---,0.00,VWS V14.01,2013-03-15 19:19:00,
2013-03-15 12:24:00,60.1,48.3,30.44,South,180,1.6,1.6,65,0.00,,---,0.00,VWS V14.01,2013-03-15 19:24:00,
2013-03-15 12:29:00,59.9,47.7,30.44,South,180,1.6,1.6,64,0.00,,---,0.00,VWS V14.01,2013-03-15 19:29:00,
2013-03-15 12:34:00,60.1,48.3,30.44,South,180,1.6,1.6,65,0.00,,---,0.00,VWS V14.01,2013-03-15 19:34:00,
2013-03-15 12:39:00,60.1,49.1,30.44,South,180,1.6,1.6,67,0.00,,---,0.00,VWS V14.01,2013-03-15 19:39:00,
2013-03-15 12:44:00,59.9,48.5,30.44,South,180,1.6,1.6,66,0.00,,---,0.00,VWS V14.01,2013-03-15 19:44:00,
2013-03-15 12:49:00,59.9,48.5,30.44,South,180,1.6,1.6,66,0.00,,---,0.00,VWS V14.01,2013-03-15 19:49:00,
2013-03-15 12:54:00,59.9,48.5,30.44,South,180,1.6,1.6,66,0.00,,---,0.00,VWS V14.01,2013-03-15 19:54:00,
2013-03-15 12:59:00,59.6,48.6,30.44,South,180,1.6,1.6,67,0.00,,---,0.00,VWS V14.01,2013-03-15 19:59:00,
2013-03-15 13:04:00,59.4,48.5,30.45,South,180,1.6,1.6,67,0.00,,---,0.00,VWS V14.01,2013-03-15 20:04:00,
2013-03-15 13:09:00,59.0,48.1,30.45,South,180,1.6,1.6,67,0.00,,---,0.00,VWS V14.01,2013-03-15 20:09:00,
2013-03-15 13:14:00,58.9,48.4,30.45,South,180,1.6,1.6,68,0.00,,---,0.00,VWS V14.01,2013-03-15 20:14:00,
2013-03-15 13:19:00,58.7,47.0,30.45,South,180,1.6,1.6,65,0.00,,---,0.00,VWS V14.01,2013-03-15 20:19:00,
2013-03-15 13:24:00,58.7,47.4,30.45,South,180,1.6,1.6,66,0.00,,---,0.00,VWS V14.01,2013-03-15 20:24:00,
2013-03-15 13:29:00,58.5,47.6,30.44,South,180,1.6,1.6,67,0.00,,---,0.00,VWS V14.01,2013-03-15 20:29:00,
2013-03-15 13:34:00,58.5,47.2,30.44,South,180,1.6,1.6,66,0.00,,---,0.00,VWS V14.01,2013-03-15 20:34:00,
2013-03-15 13:39:00,58.7,47.8,30.44,South,180,1.3,1.6,67,0.00,,---,0.00,VWS V14.01,2013-03-15 20:39:00,
2013-03-15 13:44:00,58.9,48.0,30.44,South,180,1.1,1.1,67,0.00,,---,0.00,VWS V14.01,2013-03-15 20:44:00,
2013-03-15 13:49:00,58.9,48.0,30.44,South,180,1.8,4.9,67,0.00,,---,0.00,VWS V14.01,2013-03-15 20:49:00,
2013-03-15 13:54:00,59.2,47.9,30.44,South,180,1.8,1.8,66,0.00,,---,0.00,VWS V14.01,2013-03-15 20:54:00,
2013-03-15 13:59:00,59.2,47.9,30.44,South,180,4.3,4.3,66,0.00,,---,0.00,VWS V14.01,2013-03-15 20:59:00,
2013-03-15 14:04:00,59.4,47.2,30.44,South,180,1.6,1.8,64,0.00,,---,0.00,VWS V14.01,2013-03-15 21:04:00,
2013-03-15 14:09:00,59.6,47.0,30.43,South,180,2.5,2.5,63,0.00,,---,0.00,VWS V14.01,2013-03-15 21:09:00,
2013-03-15 14:14:00,59.4,47.7,30.43,South,180,1.8,1.8,65,0.00,,---,0.00,VWS V14.01,2013-03-15 21:14:00,
2013-03-15 14:19:00,59.4,47.2,30.43,South,180,1.8,2.5,64,0.00,,---,0.00,VWS V14.01,2013-03-15 21:19:00,
2013-03-15 14:24:00,59.8,47.6,30.43,South,180,2.2,2.2,64,0.00,,---,0.00,VWS V14.01,2013-03-15 21:24:00,
2013-03-15 14:29:00,59.8,47.6,30.43,South,180,1.8,1.8,64,0.00,,---,0.00,VWS V14.01,2013-03-15 21:29:00,
2013-03-15 14:34:00,59.6,46.6,30.43,South,180,1.8,1.8,62,0.00,,---,0.00,VWS V14.01,2013-03-15 21:34:00,
2013-03-15 14:39:00,59.6,47.0,30.43,South,180,2.0,2.0,63,0.00,,---,0.00,VWS V14.01,2013-03-15 21:39:00,
2013-03-15 14:44:00,59.6,46.6,30.43,South,180,2.2,2.2,62,0.00,,---,0.00,VWS V14.01,2013-03-15 21:44:00,
2013-03-15 14:49:00,59.8,47.2,30.43,South,180,5.4,5.4,63,0.00,,---,0.00,VWS V14.01,2013-03-15 21:49:00,
2013-03-15 14:54:00,59.9,46.9,30.43,South,180,2.0,2.0,62,0.00,,---,0.00,VWS V14.01,2013-03-15 21:54:00,
2013-03-15 14:59:00,59.9,46.9,30.42,South,180,1.8,1.8,62,0.00,,---,0.00,VWS V14.01,2013-03-15 21:59:00,
2013-03-15 15:04:00,59.9,46.9,30.43,South,180,1.8,1.8,62,0.00,,---,0.00,VWS V14.01,2013-03-15 22:04:00,
2013-03-15 15:09:00,60.1,47.0,30.42,South,180,4.0,4.0,62,0.00,,---,0.00,VWS V14.01,2013-03-15 22:09:00,
2013-03-15 15:14:00,59.9,45.1,30.42,South,180,3.4,3.4,58,0.00,,---,0.00,VWS V14.01,2013-03-15 22:14:00,
2013-03-15 15:19:00,59.8,45.9,30.42,South,180,2.5,2.5,60,0.00,,---,0.00,VWS V14.01,2013-03-15 22:19:00,
2013-03-15 15:24:00,60.1,45.3,30.41,South,180,2.0,2.0,58,0.00,,---,0.00,VWS V14.01,2013-03-15 22:24:00,
2013-03-15 15:29:00,60.3,46.8,30.41,South,180,1.8,1.8,61,0.00,,---,0.00,VWS V14.01,2013-03-15 22:29:00,
2013-03-15 15:34:00,60.8,47.3,30.41,South,180,1.8,1.8,61,0.00,,---,0.00,VWS V14.01,2013-03-15 22:34:00,
2013-03-15 15:39:00,61.2,45.9,30.41,South,180,0.7,0.7,57,0.00,,---,0.00,VWS V14.01,2013-03-15 22:39:00,
2013-03-15 15:44:00,61.4,46.5,30.41,South,180,3.1,3.1,58,0.00,,---,0.00,VWS V14.01,2013-03-15 22:44:00,
2013-03-15 15:49:00,61.0,45.2,30.41,South,180,2.5,2.9,56,0.00,,---,0.00,VWS V14.01,2013-03-15 22:49:00,
2013-03-15 15:54:00,61.0,46.1,30.41,South,180,2.5,2.5,58,0.00,,---,0.00,VWS V14.01,2013-03-15 22:54:00,
2013-03-15 15:59:00,61.2,46.3,30.41,South,180,2.5,2.5,58,0.00,,---,0.00,VWS V14.01,2013-03-15 22:59:00,
2013-03-15 16:04:00,61.0,46.1,30.40,South,180,0.4,0.4,58,0.00,,---,0.00,VWS V14.01,2013-03-15 23:04:00,
2013-03-15 16:09:00,60.8,46.0,30.40,South,180,0.2,0.7,58,0.00,,---,0.00,VWS V14.01,2013-03-15 23:09:00,
2013-03-15 16:14:00,60.8,46.0,30.41,South,180,1.1,1.1,58,0.00,,---,0.00,VWS V14.01,2013-03-15 23:14:00,
2013-03-15 16:19:00,60.5,46.1,30.40,South,180,0.7,1.6,59,0.00,,---,0.00,VWS V14.01,2013-03-15 23:19:00,
2013-03-15 16:24:00,60.5,46.6,30.40,South,180,0.4,0.4,60,0.00,,---,0.00,VWS V14.01,2013-03-15 23:24:00,
2013-03-15 16:29:00,60.3,46.4,30.41,South,180,3.4,3.4,60,0.00,,---,0.00,VWS V14.01,2013-03-15 23:29:00,
2013-03-15 16:34:00,60.3,46.8,30.40,South,180,0.0,0.0,61,0.00,,---,0.00,VWS V14.01,2013-03-15 23:34:00,
2013-03-15 16:39:00,60.5,47.4,30.40,South,180,0.4,0.4,62,0.00,,---,0.00,VWS V14.01,2013-03-15 23:39:00,
2013-03-15 16:44:00,60.3,47.7,30.40,South,180,0.0,0.0,63,0.00,,---,0.00,VWS V14.01,2013-03-15 23:44:00,
2013-03-15 16:49:00,59.2,47.5,30.40,South,180,1.8,1.8,65,0.00,,---,0.00,VWS V14.01,2013-03-15 23:49:00,
2013-03-15 16:54:00,58.5,48.0,30.40,South,180,1.3,1.8,68,0.00,,---,0.00,VWS V14.01,2013-03-15 23:54:00,
2013-03-15 16:59:00,58.3,47.8,30.40,South,180,1.3,1.3,68,0.00,,---,0.00,VWS V14.01,2013-03-15 23:59:00,
2013-03-15 17:04:00,58.3,48.2,30.40,South,180,0.0,0.0,69,0.00,,---,0.00,VWS V14.01,2013-03-16 00:04:00,
2013-03-15 17:09:00,58.5,48.4,30.40,South,180,0.0,0.0,69,0.00,,---,0.00,VWS V14.01,2013-03-16 00:09:00,
2013-03-15 17:14:00,58.5,48.4,30.40,South,180,0.4,0.4,69,0.00,,---,0.00,VWS V14.01,2013-03-16 00:14:00,
2013-03-15 17:19:00,58.3,48.2,30.40,South,180,1.1,1.8,69,0.00,,---,0.00,VWS V14.01,2013-03-16 00:19:00,
2013-03-15 17:24:00,58.0,48.3,30.40,South,180,0.4,0.9,70,0.00,,---,0.00,VWS V14.01,2013-03-16 00:24:00,
2013-03-15 17:29:00,57.8,48.1,30.40,South,180,0.0,0.0,70,0.00,,---,0.00,VWS V14.01,2013-03-16 00:29:00,
2013-03-15 17:35:00,57.6,48.3,30.40,South,180,0.9,0.9,71,0.00,,---,0.00,VWS V14.01,2013-03-16 00:35:00,
2013-03-15 17:40:00,57.4,48.5,30.40,South,180,0.7,0.7,72,0.00,,---,0.00,VWS V14.01,2013-03-16 00:40:00,
2013-03-15 17:45:00,57.4,48.1,30.40,South,180,0.4,0.4,71,0.00,,---,0.00,VWS V14.01,2013-03-16 00:45:00,
2013-03-15 17:50:00,57.2,48.6,30.40,South,180,0.0,0.0,73,0.00,,---,0.00,VWS V14.01,2013-03-16 00:50:00,
2013-03-15 17:55:00,57.1,48.5,30.40,South,180,0.0,0.7,73,0.00,,---,0.00,VWS V14.01,2013-03-16 00:55:00,
2013-03-15 18:00:00,56.9,48.3,30.40,South,180,0.0,0.2,73,0.00,,---,0.00,VWS V14.01,2013-03-16 01:00:00,
2013-03-15 18:05:00,56.9,48.3,30.40,South,180,0.0,0.0,73,0.00,,---,0.00,VWS V14.01,2013-03-16 01:05:00,
2013-03-15 18:10:00,56.7,48.5,30.40,South,180,0.2,0.2,74,0.00,,---,0.00,VWS V14.01,2013-03-16 01:10:00,
2013-03-15 18:15:00,56.7,48.5,30.40,South,180,0.0,0.0,74,0.00,,---,0.00,VWS V14.01,2013-03-16 01:15:00,
2013-03-15 18:20:00,56.5,48.3,30.40,South,180,1.1,1.1,74,0.00,,---,0.00,VWS V14.01,2013-03-16 01:20:00,
2013-03-15 18:25:00,56.5,48.3,30.40,South,180,0.0,0.0,74,0.00,,---,0.00,VWS V14.01,2013-03-16 01:25:00,
2013-03-15 18:30:00,56.2,48.0,30.40,South,180,0.2,3.4,74,0.00,,---,0.00,VWS V14.01,2013-03-16 01:30:00,
2013-03-15 18:35:00,56.2,48.0,30.40,South,180,0.4,0.4,74,0.00,,---,0.00,VWS V14.01,2013-03-16 01:35:00,
2013-03-15 18:40:00,56.0,48.2,30.40,South,180,0.0,0.0,75,0.00,,---,0.00,VWS V14.01,2013-03-16 01:40:00,
2013-03-15 18:45:00,55.8,48.0,30.40,South,180,2.2,2.2,75,0.00,,---,0.00,VWS V14.01,2013-03-16 01:45:00,
2013-03-15 18:50:00,55.6,47.5,30.41,South,180,0.4,0.4,74,0.00,,---,0.00,VWS V14.01,2013-03-16 01:50:00,
2013-03-15 18:55:00,55.4,47.3,30.40,South,180,0.0,0.0,74,0.00,,---,0.00,VWS V14.01,2013-03-16 01:55:00,
2013-03-15 19:00:00,55.3,47.2,30.40,South,180,0.0,0.0,74,0.00,,---,0.00,VWS V14.01,2013-03-16 02:00:00,
2013-03-15 19:05:00,55.1,47.3,30.40,South,180,0.0,0.0,75,0.00,,---,0.00,VWS V14.01,2013-03-16 02:05:00,
2013-03-15 19:10:00,55.1,47.3,30.40,South,180,1.8,1.8,75,0.00,,---,0.00,VWS V14.01,2013-03-16 02:10:00,
2013-03-15 19:15:00,54.7,47.3,30.40,South,180,0.0,0.0,76,0.00,,---,0.00,VWS V14.01,2013-03-16 02:15:00,
2013-03-15 19:20:00,54.5,46.8,30.40,South,180,0.0,0.0,75,0.00,,---,0.00,VWS V14.01,2013-03-16 02:20:00,
2013-03-15 19:25:00,54.4,46.7,30.40,South,180,1.1,1.8,75,0.00,,---,0.00,VWS V14.01,2013-03-16 02:25:00,
2013-03-15 19:30:00,54.4,46.7,30.40,South,180,0.0,1.8,75,0.00,,---,0.00,VWS V14.01,2013-03-16 02:30:00,
2013-03-15 19:35:00,54.2,46.5,30.40,South,180,0.4,0.4,75,0.00,,---,0.00,VWS V14.01,2013-03-16 02:35:00,
2013-03-15 19:40:00,54.2,46.5,30.41,South,180,0.0,0.2,75,0.00,,---,0.00,VWS V14.01,2013-03-16 02:40:00,
2013-03-15 19:45:00,54.0,46.3,30.40,South,180,0.0,0.0,75,0.00,,---,0.00,VWS V14.01,2013-03-16 02:45:00,
2013-03-15 19:50:00,53.8,46.1,30.40,South,180,0.0,0.0,75,0.00,,---,0.00,VWS V14.01,2013-03-16 02:50:00,
2013-03-15 19:55:00,53.8,46.1,30.41,South,180,0.0,0.0,75,0.00,,---,0.00,VWS V14.01,2013-03-16 02:55:00,
2013-03-15 20:00:00,53.6,46.2,30.41,South,180,0.0,0.0,76,0.00,,---,0.00,VWS V14.01,2013-03-16 03:00:00,
2013-03-15 20:05:00,53.6,46.2,30.41,South,180,0.0,0.0,76,0.00,,---,0.00,VWS V14.01,2013-03-16 03:05:00,
2013-03-15 20:10:00,53.5,46.1,30.40,South,180,0.0,0.0,76,0.00,,---,0.00,VWS V14.01,2013-03-16 03:10:00,
2013-03-15 20:15:00,53.1,46.1,30.40,South,180,0.4,0.4,77,0.00,,---,0.00,VWS V14.01,2013-03-16 03:15:00,
2013-03-15 20:20:00,52.9,45.9,30.40,South,180,0.0,0.0,77,0.00,,---,0.00,VWS V14.01,2013-03-16 03:20:00,
2013-03-15 20:25:00,52.7,46.0,30.40,South,180,0.0,0.0,78,0.00,,---,0.00,VWS V14.01,2013-03-16 03:25:00,
2013-03-15 20:30:00,52.6,46.0,30.40,South,180,0.0,0.0,78,0.00,,---,0.00,VWS V14.01,2013-03-16 03:30:00,
2013-03-15 20:35:00,52.4,45.8,30.40,South,180,0.4,0.4,78,0.00,,---,0.00,VWS V14.01,2013-03-16 03:35:00,
2013-03-15 20:40:00,52.2,45.6,30.40,South,180,0.0,0.0,78,0.00,,---,0.00,VWS V14.01,2013-03-16 03:40:00,
2013-03-15 20:45:00,52.0,45.7,30.40,South,180,1.1,1.1,79,0.00,,---,0.00,VWS V14.01,2013-03-16 03:45:00,
2013-03-15 20:50:00,51.8,45.5,30.40,South,180,0.0,0.0,79,0.00,,---,0.00,VWS V14.01,2013-03-16 03:50:00,
2013-03-15 20:55:00,51.7,45.7,30.40,South,180,0.0,0.0,80,0.00,,---,0.00,VWS V14.01,2013-03-16 03:55:00,
2013-03-15 21:00:00,51.5,45.5,30.40,South,180,0.0,0.0,80,0.00,,---,0.00,VWS V14.01,2013-03-16 04:00:00,
2013-03-15 21:05:00,51.3,45.7,30.40,South,180,0.0,0.0,81,0.00,,---,0.00,VWS V14.01,2013-03-16 04:05:00,
2013-03-15 21:10:00,51.1,45.8,30.41,South,180,0.0,0.0,82,0.00,,---,0.00,VWS V14.01,2013-03-16 04:10:00,
2013-03-15 21:15:00,51.1,45.8,30.41,South,180,0.0,0.0,82,0.00,,---,0.00,VWS V14.01,2013-03-16 04:15:00,
2013-03-15 21:20:00,50.9,45.6,30.41,South,180,0.0,0.0,82,0.00,,---,0.00,VWS V14.01,2013-03-16 04:20:00,
2013-03-15 21:25:00,50.8,45.5,30.40,South,180,0.0,0.0,82,0.00,,---,0.00,VWS V14.01,2013-03-16 04:25:00,
2013-03-15 21:30:00,50.8,45.5,30.40,South,180,0.0,0.0,82,0.00,,---,0.00,VWS V14.01,2013-03-16 04:30:00,
2013-03-15 21:35:00,50.8,45.5,30.41,South,180,0.2,0.2,82,0.00,,---,0.00,VWS V14.01,2013-03-16 04:35:00,
2013-03-15 21:40:00,50.8,45.5,30.41,South,180,0.0,0.0,82,0.00,,---,0.00,VWS V14.01,2013-03-16 04:40:00,
2013-03-15 21:45:00,50.8,45.5,30.41,South,180,0.0,0.0,82,0.00,,---,0.00,VWS V14.01,2013-03-16 04:45:00,
2013-03-15 21:50:00,50.8,45.5,30.41,South,180,0.4,0.4,82,0.00,,---,0.00,VWS V14.01,2013-03-16 04:50:00,
2013-03-15 21:55:00,50.8,45.8,30.41,South,180,0.0,0.0,83,0.00,,---,0.00,VWS V14.01,2013-03-16 04:55:00,
2013-03-15 22:00:00,50.6,45.6,30.41,South,180,0.0,0.0,83,0.00,,---,0.00,VWS V14.01,2013-03-16 05:00:00,
2013-03-15 22:05:00,50.6,45.6,30.41,South,180,0.0,0.0,83,0.00,,---,0.00,VWS V14.01,2013-03-16 05:05:00,
2013-03-15 22:10:00,50.4,45.4,30.41,South,180,0.0,0.0,83,0.00,,---,0.00,VWS V14.01,2013-03-16 05:10:00,
2013-03-15 22:15:00,50.4,45.8,30.40,South,180,0.0,0.0,84,0.00,,---,0.00,VWS V14.01,2013-03-16 05:15:00,
2013-03-15 22:20:00,50.4,45.8,30.40,South,180,0.0,0.0,84,0.00,,---,0.00,VWS V14.01,2013-03-16 05:20:00,
2013-03-15 22:25:00,50.4,45.8,30.40,South,180,0.0,0.0,84,0.00,,---,0.00,VWS V14.01,2013-03-16 05:25:00,
2013-03-15 22:30:00,50.2,45.6,30.40,South,180,0.0,0.0,84,0.00,,---,0.00,VWS V14.01,2013-03-16 05:30:00,
2013-03-15 22:35:00,50.0,45.4,30.40,South,180,0.0,0.0,84,0.00,,---,0.00,VWS V14.01,2013-03-16 05:35:00,
2013-03-15 22:40:00,50.0,45.7,30.40,South,180,0.0,0.0,85,0.00,,---,0.00,VWS V14.01,2013-03-16 05:40:00,
2013-03-15 22:45:00,49.9,45.6,30.40,South,180,0.0,0.0,85,0.00,,---,0.00,VWS V14.01,2013-03-16 05:45:00,
2013-03-15 22:50:00,49.9,45.6,30.40,South,180,0.0,0.0,85,0.00,,---,0.00,VWS V14.01,2013-03-16 05:50:00,
2013-03-15 22:55:00,49.7,45.4,30.40,South,180,0.0,0.0,85,0.00,,---,0.00,VWS V14.01,2013-03-16 05:55:00,
2013-03-15 23:00:00,49.7,45.4,30.40,South,180,0.0,0.0,85,0.00,,---,0.00,VWS V14.01,2013-03-16 06:00:00,
2013-03-15 23:05:00,49.7,45.4,30.40,South,180,0.0,0.0,85,0.00,,---,0.00,VWS V14.01,2013-03-16 06:05:00,
2013-03-15 23:10:00,49.5,44.9,30.40,South,180,0.0,0.0,84,0.00,,---,0.00,VWS V14.01,2013-03-16 06:10:00,
2013-03-15 23:15:00,49.5,45.2,30.39,South,180,0.0,0.0,85,0.00,,---,0.00,VWS V14.01,2013-03-16 06:15:00,
2013-03-15 23:20:00,49.3,45.0,30.39,South,180,0.0,0.0,85,0.00,,---,0.00,VWS V14.01,2013-03-16 06:20:00,
2013-03-15 23:25:00,49.3,45.0,30.39,South,180,0.0,0.0,85,0.00,,---,0.00,VWS V14.01,2013-03-16 06:25:00,
2013-03-15 23:30:00,49.1,44.8,30.40,South,180,0.0,0.0,85,0.00,,---,0.00,VWS V14.01,2013-03-16 06:30:00,
2013-03-15 23:35:00,49.1,44.8,30.40,South,180,0.0,0.0,85,0.00,,---,0.00,VWS V14.01,2013-03-16 06:35:00,
2013-03-15 23:40:00,49.1,44.8,30.40,South,180,0.0,0.0,85,0.00,,---,0.00,VWS V14.01,2013-03-16 06:40:00,
2013-03-15 23:45:00,49.1,44.8,30.40,South,180,0.0,0.0,85,0.00,,---,0.00,VWS V14.01,2013-03-16 06:45:00,
2013-03-15 23:50:00,49.0,44.7,30.40,South,180,0.0,0.0,85,0.00,,---,0.00,VWS V14.01,2013-03-16 06:50:00,
2013-03-15 23:55:00,49.0,44.7,30.40,South,180,0.0,0.0,85,0.00,,---,0.00,VWS V14.01,2013-03-16 06:55:00,